createdAt,value
2022-10-11T00:01:38.720Z,3.67
2022-10-11T00:04:06.128Z,3.40
2022-10-11T00:06:33.314Z,3.23
2022-10-11T00:09:00.314Z,7.50
2022-10-11T00:11:27.523Z,6.67
2022-10-11T00:13:55.244Z,5.50
2022-10-11T00:16:22.518Z,4.83
2022-10-11T00:18:49.641Z,4.03
2022-10-11T00:21:17.179Z,6.80
2022-10-11T00:23:44.394Z,7.70
2022-10-11T00:26:11.884Z,7.40
2022-10-11T00:28:39.315Z,5.27
2022-10-11T00:31:11.167Z,7.50
2022-10-11T00:33:38.341Z,5.17
2022-10-11T00:36:06.426Z,4.97
2022-10-11T00:38:34.013Z,3.70
2022-10-11T00:41:01.336Z,3.33
2022-10-11T00:43:29.545Z,3.67
2022-10-11T00:45:56.821Z,4.30
2022-10-11T00:48:27.996Z,4.13
2022-10-11T00:50:59.637Z,4.07
2022-10-11T00:53:28.410Z,3.83
2022-10-11T00:56:00.036Z,4.03
2022-10-11T00:58:27.324Z,4.00
2022-10-11T01:00:54.787Z,3.43
2022-10-11T01:03:22.006Z,4.00
2022-10-11T01:05:49.129Z,4.10
2022-10-11T01:08:16.452Z,3.53
2022-10-11T01:10:43.710Z,3.37
2022-10-11T01:13:28.901Z,3.43
2022-10-11T01:16:01.644Z,3.53
2022-10-11T01:18:44.659Z,3.47
2022-10-11T01:21:36.503Z,3.37
2022-10-11T01:24:12.107Z,3.40
2022-10-11T01:27:13.197Z,3.60
2022-10-11T01:29:43.197Z,3.53
2022-10-11T01:32:49.071Z,3.83
2022-10-11T01:35:46.354Z,3.77
2022-10-11T01:38:36.782Z,3.20
2022-10-11T01:41:19.275Z,3.07
2022-10-11T01:43:46.399Z,3.53
2022-10-11T01:46:13.587Z,3.13
2022-10-11T01:48:48.879Z,3.07
2022-10-11T01:51:16.499Z,2.90
2022-10-11T01:54:44.135Z,3.07
2022-10-11T01:57:44.385Z,2.50
2022-10-11T02:00:11.816Z,2.40
2022-10-11T02:02:51.898Z,2.90
2022-10-11T02:05:49.726Z,2.67
2022-10-11T02:08:37.899Z,3.10
2022-10-11T02:11:12.461Z,3.50
2022-10-11T02:13:51.766Z,3.17
2022-10-11T02:16:20.545Z,3.00
2022-10-11T02:18:49.112Z,2.93
2022-10-11T02:21:20.520Z,2.70
2022-10-11T02:23:50.701Z,3.83
2022-10-11T02:26:17.701Z,3.03
2022-10-11T02:28:44.785Z,2.80
2022-10-11T02:31:12.019Z,3.80
2022-10-11T02:34:11.986Z,3.30
2022-10-11T02:36:55.131Z,3.53
2022-10-11T02:39:57.574Z,3.30
2022-10-11T02:42:27.056Z,3.30
2022-10-11T02:45:03.731Z,3.50
2022-10-11T02:47:31.327Z,3.43
2022-10-11T02:49:59.674Z,3.30
2022-10-11T02:52:27.110Z,3.40
2022-10-11T02:54:54.227Z,3.13
2022-10-11T02:57:21.371Z,3.33
2022-10-11T02:59:48.511Z,3.50
2022-10-11T03:02:15.615Z,3.63
2022-10-11T03:04:42.915Z,3.60
2022-10-11T03:07:10.133Z,3.50
2022-10-11T03:09:37.107Z,3.23
2022-10-11T03:12:04.473Z,2.67
2022-10-11T03:14:31.662Z,2.30
2022-10-11T03:17:17.236Z,3.00
2022-10-11T03:19:47.720Z,3.00
2022-10-11T03:22:15.023Z,2.93
2022-10-11T03:24:42.027Z,3.80
2022-10-11T03:27:09.105Z,3.73
2022-10-11T03:29:36.271Z,4.40
2022-10-11T03:32:03.605Z,3.70
2022-10-11T03:34:30.732Z,3.60
2022-10-11T03:36:57.744Z,3.67
2022-10-11T03:39:24.768Z,2.87
2022-10-11T03:41:51.854Z,3.50
2022-10-11T03:44:19.025Z,3.23
2022-10-11T03:46:46.036Z,3.60
2022-10-11T03:49:13.309Z,3.40
2022-10-11T03:51:40.679Z,3.47
2022-10-11T03:54:08.034Z,3.80
2022-10-11T03:56:35.164Z,4.30
2022-10-11T03:59:02.362Z,4.00
2022-10-11T04:01:30.839Z,3.37
2022-10-11T04:03:57.964Z,3.63
2022-10-11T04:06:25.382Z,4.00
2022-10-11T04:08:52.437Z,4.83
2022-10-11T04:11:19.639Z,3.83
2022-10-11T04:13:46.887Z,4.17
2022-10-11T04:16:13.954Z,3.87
2022-10-11T04:18:41.076Z,4.17
2022-10-11T04:21:08.124Z,4.63
2022-10-11T04:23:35.168Z,4.60
2022-10-11T04:26:06.301Z,4.03
2022-10-11T04:28:34.113Z,3.67
2022-10-11T04:31:01.387Z,3.13
2022-10-11T04:33:28.504Z,3.13
2022-10-11T04:35:56.304Z,3.43
2022-10-11T04:38:24.175Z,3.00
2022-10-11T04:40:51.551Z,3.50
2022-10-11T04:43:19.104Z,4.23
2022-10-11T04:45:46.192Z,4.37
2022-10-11T04:48:14.198Z,4.60
2022-10-11T04:50:41.291Z,3.97
2022-10-11T04:53:08.361Z,4.10
2022-10-11T04:55:35.380Z,3.70
2022-10-11T04:58:02.637Z,4.90
2022-10-11T05:00:29.773Z,4.53
2022-10-11T05:02:57.189Z,3.60
2022-10-11T05:05:24.131Z,7.20
2022-10-11T05:07:51.508Z,4.90
2022-10-11T05:10:18.557Z,3.80
2022-10-11T05:12:46.066Z,3.43
2022-10-11T05:15:13.367Z,3.73
2022-10-11T05:17:40.395Z,3.27
2022-10-11T05:20:08.110Z,2.70
2022-10-11T05:22:35.291Z,3.10
2022-10-11T05:25:02.228Z,3.00
2022-10-11T05:27:29.425Z,3.80
2022-10-11T05:29:56.749Z,4.07
2022-10-11T05:32:27.739Z,3.80
2022-10-11T05:34:55.398Z,4.27
2022-10-11T05:37:22.499Z,3.43
2022-10-11T05:39:49.782Z,3.80
2022-10-11T05:42:16.972Z,4.07
2022-10-11T05:44:43.894Z,3.70
2022-10-11T05:47:11.074Z,3.80
2022-10-11T05:49:39.523Z,3.70
2022-10-11T05:52:09.177Z,3.87
2022-10-11T05:54:36.331Z,4.00
2022-10-11T05:57:03.534Z,3.80
2022-10-11T05:59:30.784Z,3.10
2022-10-11T06:01:57.734Z,3.20
2022-10-11T06:04:24.753Z,4.23
2022-10-11T06:06:52.080Z,3.47
2022-10-11T06:09:19.486Z,4.57
2022-10-11T06:11:46.635Z,3.83
2022-10-11T06:14:13.552Z,3.80
2022-10-11T06:16:40.844Z,3.50
2022-10-11T06:19:08.083Z,8.37
2022-10-11T06:21:35.160Z,8.00
2022-10-11T06:24:02.728Z,3.93
2022-10-11T06:26:30.169Z,4.13
2022-10-11T06:28:57.401Z,4.07
2022-10-11T06:31:24.497Z,4.37
2022-10-11T06:33:51.524Z,4.80
2022-10-11T06:36:18.750Z,4.17
2022-10-11T06:38:45.706Z,3.87
2022-10-11T06:41:16.991Z,3.30
2022-10-11T06:43:44.280Z,2.57
2022-10-11T06:46:11.797Z,3.07
2022-10-11T06:48:43.671Z,3.60
2022-10-11T06:51:11.539Z,5.10
2022-10-11T06:53:38.684Z,9.17
2022-10-11T06:56:10.286Z,5.83
2022-10-11T06:58:37.764Z,6.43
2022-10-11T07:01:06.849Z,4.67
2022-10-11T07:03:33.917Z,4.97
2022-10-11T07:06:02.835Z,4.43
2022-10-11T07:08:30.071Z,17.73
2022-10-11T07:11:04.454Z,11.10
2022-10-11T07:13:31.608Z,4.00
2022-10-11T07:16:01.803Z,4.00
2022-10-11T07:18:28.994Z,5.70
2022-10-11T07:20:56.207Z,4.90
2022-10-11T07:23:23.716Z,5.57
2022-10-11T07:25:54.601Z,4.80
2022-10-11T07:28:22.635Z,4.83
2022-10-11T07:30:49.950Z,5.00
2022-10-11T07:33:17.156Z,5.37
2022-10-11T07:35:48.231Z,4.30
2022-10-11T07:38:15.769Z,4.47
2022-10-11T07:40:43.910Z,5.30
2022-10-11T07:43:11.690Z,4.60
2022-10-11T07:45:40.040Z,4.90
2022-10-11T07:48:07.175Z,6.00
2022-10-11T07:50:34.436Z,5.93
2022-10-11T07:53:01.752Z,5.83
2022-10-11T07:55:30.162Z,4.80
2022-10-11T07:57:57.727Z,5.47
2022-10-11T08:00:24.911Z,4.93
2022-10-11T08:02:51.965Z,5.73
2022-10-11T08:05:19.079Z,6.00
2022-10-11T08:07:46.317Z,5.90
2022-10-11T08:10:13.724Z,13.30
2022-10-11T08:12:40.865Z,13.60
2022-10-11T08:15:08.339Z,6.97
2022-10-11T08:17:35.643Z,5.80
2022-10-11T08:20:02.837Z,5.20
2022-10-11T08:22:30.610Z,5.30
2022-10-11T08:24:57.771Z,5.57
2022-10-11T08:27:24.832Z,5.57
2022-10-11T08:29:51.835Z,6.10
2022-10-11T08:32:19.059Z,5.87
2022-10-11T08:34:46.422Z,6.33
2022-10-11T08:37:13.653Z,6.50
2022-10-11T08:39:40.984Z,6.30
2022-10-11T08:42:14.344Z,8.30
2022-10-11T08:47:43.277Z,6.70
2022-10-11T08:50:21.296Z,8.27
2022-10-11T08:53:04.552Z,8.33
2022-10-11T08:55:45.105Z,8.63
2022-10-11T08:58:13.557Z,8.23
2022-10-11T09:00:40.926Z,9.07
2022-10-11T09:03:29.171Z,8.73
2022-10-11T09:06:28.256Z,9.10
2022-10-11T09:09:14.328Z,9.87
2022-10-11T09:11:47.845Z,10.57
2022-10-11T09:14:43.769Z,10.80
2022-10-11T09:17:31.924Z,10.47
2022-10-11T09:20:09.942Z,11.83
2022-10-11T09:23:04.290Z,10.60
2022-10-11T09:25:38.036Z,11.53
2022-10-11T09:28:13.481Z,11.37
2022-10-11T09:30:51.346Z,11.67
2022-10-11T09:33:20.408Z,11.93
2022-10-11T09:35:52.631Z,10.40
2022-10-11T09:38:35.982Z,9.63
2022-10-11T09:41:24.061Z,10.67
2022-10-11T09:43:52.150Z,11.70
2022-10-11T09:46:37.781Z,10.43
2022-10-11T09:49:07.969Z,9.90
2022-10-11T09:51:35.216Z,16.77
2022-10-11T09:54:05.084Z,10.30
2022-10-11T09:56:33.584Z,11.97
2022-10-11T09:59:27.402Z,8.17
2022-10-11T10:02:27.774Z,10.40
2022-10-11T10:05:04.695Z,9.00
2022-10-11T10:07:33.055Z,7.13
2022-10-11T10:10:00.889Z,9.20
2022-10-11T10:12:29.742Z,8.53
2022-10-11T10:15:07.603Z,11.23
2022-10-11T10:17:34.867Z,7.20
2022-10-11T10:20:02.196Z,6.90
2022-10-11T10:22:31.322Z,7.10
2022-10-11T10:24:59.375Z,6.80
2022-10-11T10:27:28.018Z,7.13
2022-10-11T10:30:13.385Z,6.73
2022-10-11T10:32:53.816Z,6.93
2022-10-11T10:35:39.721Z,6.77
2022-10-11T10:38:57.096Z,6.57
2022-10-11T10:41:24.464Z,6.73
2022-10-11T10:43:58.187Z,6.50
2022-10-11T10:46:28.051Z,7.10
2022-10-11T10:52:13.477Z,6.10
2022-10-11T10:54:55.352Z,6.60
2022-10-11T10:57:40.991Z,7.50
2022-10-11T11:00:21.254Z,5.60
2022-10-11T11:03:08.895Z,5.07
2022-10-11T11:06:02.720Z,5.53
2022-10-11T11:08:39.004Z,6.03
2022-10-11T11:11:46.786Z,8.27
2022-10-11T11:14:35.414Z,5.40
2022-10-11T11:17:34.244Z,7.63
2022-10-11T11:20:13.238Z,5.60
2022-10-11T11:23:07.912Z,5.10
2022-10-11T11:25:53.645Z,9.47
2022-10-11T11:28:33.197Z,5.33
2022-10-11T11:31:31.996Z,5.70
2022-10-11T11:34:27.153Z,5.20
2022-10-11T11:36:54.413Z,6.03
2022-10-11T11:39:32.151Z,6.10
2022-10-11T11:42:12.224Z,5.07
2022-10-11T11:44:42.776Z,6.10
2022-10-11T11:47:25.629Z,5.73
2022-10-11T11:50:02.037Z,5.63
2022-10-11T11:52:41.258Z,6.40
2022-10-11T11:55:22.159Z,4.60
2022-10-11T11:58:10.258Z,4.73
2022-10-11T12:00:59.535Z,4.80
2022-10-11T12:03:29.697Z,5.00
2022-10-11T12:06:15.004Z,5.10
2022-10-11T12:09:04.501Z,4.97
2022-10-11T12:11:55.971Z,4.57
2022-10-11T12:14:33.273Z,6.17
2022-10-11T12:17:19.645Z,5.67
2022-10-11T12:20:12.721Z,4.83
2022-10-11T12:22:53.095Z,4.93
2022-10-11T12:25:23.170Z,4.60
2022-10-11T12:28:00.459Z,4.47
2022-10-11T12:30:48.441Z,4.53
2022-10-11T12:33:32.799Z,6.30
2022-10-11T12:36:20.589Z,4.90
2022-10-11T12:38:47.602Z,5.03
2022-10-11T12:41:18.369Z,5.13
2022-10-11T12:43:48.071Z,7.80
2022-10-11T12:46:38.745Z,5.63
2022-10-11T12:49:31.245Z,5.77
2022-10-11T12:52:05.313Z,5.20
2022-10-11T12:55:07.977Z,5.87
2022-10-11T12:57:46.647Z,5.33
2022-10-11T13:00:34.674Z,4.93
2022-10-11T13:03:06.219Z,5.77
2022-10-11T13:05:45.151Z,5.20
2022-10-11T13:08:29.631Z,5.10
2022-10-11T13:10:59.551Z,4.93
2022-10-11T13:13:34.764Z,4.63
2022-10-11T13:16:13.971Z,5.47
2022-10-11T13:18:45.792Z,5.63
2022-10-11T13:21:27.034Z,4.90
2022-10-11T13:24:15.476Z,5.50
2022-10-11T13:26:43.583Z,4.33
2022-10-11T13:29:16.792Z,5.07
2022-10-11T13:31:45.995Z,5.17
2022-10-11T13:34:13.089Z,6.20
2022-10-11T13:36:40.223Z,5.57
2022-10-11T13:39:07.629Z,5.50
2022-10-11T13:41:35.515Z,6.10
2022-10-11T13:44:02.551Z,5.70
2022-10-11T13:46:30.257Z,5.17
2022-10-11T13:48:59.576Z,5.37
2022-10-11T13:51:33.417Z,5.93
2022-10-11T13:54:05.543Z,5.57
2022-10-11T13:56:44.267Z,6.17
2022-10-11T13:59:22.113Z,5.93
2022-10-11T14:01:49.400Z,5.17
2022-10-11T14:04:17.523Z,5.33
2022-10-11T14:07:02.883Z,5.20
2022-10-11T14:09:35.313Z,6.20
2022-10-11T14:12:32.424Z,6.03
2022-10-11T14:15:25.164Z,5.53
2022-10-11T14:17:52.246Z,5.37
2022-10-11T14:20:25.700Z,5.73
2022-10-11T14:22:55.506Z,5.70
2022-10-11T14:25:22.560Z,6.10
2022-10-11T14:27:49.619Z,6.20
2022-10-11T14:30:25.549Z,5.83
2022-10-11T14:32:54.466Z,6.57
2022-10-11T14:35:23.476Z,5.27
2022-10-11T14:37:50.847Z,5.97
2022-10-11T14:40:26.442Z,7.17
2022-10-11T14:42:53.777Z,5.70
2022-10-11T14:45:21.513Z,5.90
2022-10-11T14:47:48.887Z,5.70
2022-10-11T14:50:47.927Z,6.47
2022-10-11T14:53:14.979Z,6.10
2022-10-11T14:55:42.279Z,6.00
2022-10-11T14:58:09.721Z,5.67
2022-10-11T15:00:37.155Z,5.10
2022-10-11T15:03:05.312Z,5.37
2022-10-11T15:05:34.277Z,5.97
2022-10-11T15:08:02.683Z,5.80
2022-10-11T15:10:35.781Z,5.67
2022-10-11T15:13:02.927Z,5.47
2022-10-11T15:15:32.827Z,5.63
2022-10-11T15:18:00.220Z,6.57
2022-10-11T15:20:29.792Z,5.73
2022-10-11T15:22:57.152Z,6.63
2022-10-11T15:25:24.612Z,6.67
2022-10-11T15:27:52.065Z,6.20
2022-10-11T15:30:24.377Z,7.90
2022-10-11T15:32:51.657Z,6.33
2022-10-11T15:35:19.295Z,6.87
2022-10-11T15:37:46.396Z,7.03
2022-10-11T15:40:22.053Z,6.87
2022-10-11T15:42:49.472Z,6.33
2022-10-11T15:45:17.331Z,6.47
2022-10-11T15:47:44.551Z,12.50
2022-10-11T15:50:35.116Z,6.63
2022-10-11T15:53:06.253Z,7.03
2022-10-11T15:55:34.025Z,6.73
2022-10-11T15:58:01.760Z,7.57
2022-10-11T16:00:29.009Z,7.03
2022-10-11T16:02:57.353Z,7.10
2022-10-11T16:05:26.172Z,6.93
2022-10-11T16:07:53.666Z,6.80
2022-10-11T16:10:21.125Z,6.60
2022-10-11T16:12:48.605Z,7.20
2022-10-11T16:15:15.920Z,6.80
2022-10-11T16:17:43.323Z,7.90
2022-10-11T16:20:10.363Z,6.80
2022-10-11T16:22:37.598Z,6.93
2022-10-11T16:25:05.060Z,7.13
2022-10-11T16:27:32.351Z,8.27
2022-10-11T16:30:00.394Z,8.57
2022-10-11T16:32:28.175Z,10.70
2022-10-11T16:34:55.402Z,9.93
2022-10-11T16:37:22.461Z,8.40
2022-10-11T16:39:49.679Z,12.60
2022-10-11T16:42:17.112Z,8.93
2022-10-11T16:44:44.222Z,9.70
2022-10-11T16:47:11.325Z,17.07
2022-10-11T16:49:38.986Z,7.90
2022-10-11T16:52:06.283Z,7.07
2022-10-11T16:54:33.376Z,6.90
2022-10-11T16:57:00.649Z,7.00
2022-10-11T16:59:27.868Z,6.03
2022-10-11T17:01:55.458Z,6.07
2022-10-11T17:04:22.783Z,5.40
2022-10-11T17:06:50.120Z,5.47
2022-10-11T17:09:17.230Z,6.40
2022-10-11T17:11:44.632Z,9.27
2022-10-11T17:14:12.861Z,9.63
2022-10-11T17:16:39.999Z,6.70
2022-10-11T17:19:13.047Z,6.07
2022-10-11T17:21:40.599Z,6.07
2022-10-11T17:24:08.160Z,6.20
2022-10-11T17:26:35.218Z,6.23
2022-10-11T17:29:02.470Z,5.57
2022-10-11T17:31:30.260Z,16.37
2022-10-11T17:34:00.678Z,17.73
2022-10-11T17:36:30.834Z,9.23
2022-10-11T17:38:58.267Z,8.97
2022-10-11T17:41:30.890Z,8.30
2022-10-11T17:43:59.855Z,7.77
2022-10-11T17:46:28.546Z,7.63
2022-10-11T17:48:56.039Z,8.23
2022-10-11T17:51:23.134Z,12.40
2022-10-11T17:53:53.136Z,11.40
2022-10-11T17:56:28.786Z,10.60
2022-10-11T17:58:57.819Z,7.87
2022-10-11T18:01:26.989Z,7.47
2022-10-11T18:03:57.209Z,8.50
2022-10-11T18:06:25.150Z,8.93
2022-10-11T18:08:52.364Z,6.20
2022-10-11T18:11:19.930Z,6.23
2022-10-11T18:13:51.144Z,6.37
2022-10-11T18:16:20.001Z,6.83
2022-10-11T18:18:47.438Z,7.47
2022-10-11T18:21:15.149Z,8.70
2022-10-11T18:23:42.599Z,8.20
2022-10-11T18:26:14.141Z,7.50
2022-10-11T18:28:41.862Z,8.70
2022-10-11T18:31:13.156Z,8.97
2022-10-11T18:33:41.199Z,8.43
2022-10-11T18:36:10.540Z,7.80
2022-10-11T18:38:38.278Z,7.30
2022-10-11T18:41:07.233Z,6.07
2022-10-11T18:43:34.622Z,6.43
2022-10-11T18:46:12.765Z,6.40
2022-10-11T18:48:43.869Z,7.27
2022-10-11T18:51:16.200Z,6.23
2022-10-11T18:53:43.395Z,5.93
2022-10-11T18:56:11.051Z,6.50
2022-10-11T18:58:39.048Z,6.40
2022-10-11T19:01:54.131Z,6.20
2022-10-11T19:04:21.520Z,5.73
2022-10-11T19:06:49.112Z,6.10
2022-10-11T19:09:22.479Z,5.87
2022-10-11T19:11:50.645Z,6.63
2022-10-11T19:14:18.847Z,7.57
2022-10-11T19:16:49.789Z,7.10
2022-10-11T19:19:18.127Z,6.67
2022-10-11T19:21:46.450Z,6.57
2022-10-11T19:24:13.684Z,6.80
2022-10-11T19:26:40.841Z,7.10
2022-10-11T19:29:09.046Z,7.77
2022-10-11T19:31:37.755Z,6.47
2022-10-11T19:34:04.970Z,6.00
2022-10-11T19:36:36.405Z,7.33
2022-10-11T19:39:04.581Z,8.77
2022-10-11T19:41:31.794Z,7.33
2022-10-11T19:43:59.519Z,6.20
2022-10-11T19:46:49.953Z,6.23
2022-10-11T19:49:16.001Z,6.47
2022-10-11T19:51:43.097Z,6.80
2022-10-11T19:54:14.125Z,6.20
2022-10-11T19:56:41.455Z,6.27
2022-10-11T19:59:08.681Z,6.80
2022-10-11T20:01:36.328Z,8.27
2022-10-11T20:04:06.927Z,9.40
2022-10-11T20:06:38.371Z,8.47
2022-10-11T20:11:54.577Z,7.47
2022-10-11T20:14:21.925Z,8.53
2022-10-11T20:16:50.496Z,7.90
2022-10-11T20:19:17.809Z,7.90
2022-10-11T20:21:45.407Z,7.93
2022-10-11T20:24:12.571Z,8.77
2022-10-11T20:26:39.810Z,8.80
2022-10-11T20:29:07.387Z,8.57
2022-10-11T20:31:38.221Z,7.90
2022-10-11T20:34:07.582Z,6.93
2022-10-11T20:36:36.314Z,7.63
2022-10-11T20:39:04.308Z,10.80
2022-10-11T20:41:37.266Z,17.43
2022-10-11T20:44:04.970Z,16.67
2022-10-11T20:46:33.658Z,8.87
2022-10-11T20:49:02.579Z,8.47
2022-10-11T20:51:33.495Z,7.07
2022-10-11T20:54:02.257Z,7.13
2022-10-11T20:56:29.991Z,6.50
2022-10-11T20:58:57.706Z,6.10
2022-10-11T21:01:26.613Z,6.53
2022-10-11T21:03:53.909Z,6.90
2022-10-11T21:06:20.949Z,6.63
2022-10-11T21:08:48.090Z,6.33
2022-10-11T21:11:15.324Z,6.07
2022-10-11T21:13:43.051Z,5.97
2022-10-11T21:16:14.734Z,6.10
2022-10-11T21:18:42.031Z,6.30
2022-10-11T21:21:11.109Z,7.30
2022-10-11T21:23:38.486Z,7.20
2022-10-11T21:26:07.394Z,7.37
2022-10-11T21:28:34.469Z,7.60
2022-10-11T21:31:11.982Z,7.30
2022-10-11T21:33:39.279Z,6.60
2022-10-11T21:36:10.870Z,7.60
2022-10-11T21:38:37.984Z,7.37
2022-10-11T21:41:19.522Z,7.53
2022-10-11T21:43:47.402Z,7.53
2022-10-11T21:46:19.735Z,7.97
2022-10-11T21:48:46.931Z,7.37
2022-10-11T21:51:22.317Z,7.40
2022-10-11T21:53:49.752Z,7.07
2022-10-11T21:56:17.073Z,7.57
2022-10-11T21:58:46.231Z,7.57
2022-10-11T22:01:13.641Z,6.97
2022-10-11T22:03:40.940Z,7.60
2022-10-11T22:06:08.245Z,6.57
2022-10-11T22:08:35.525Z,8.60
2022-10-11T22:11:02.828Z,7.33
2022-10-11T22:13:30.716Z,7.77
2022-10-11T22:15:58.027Z,8.40
2022-10-11T22:18:25.515Z,8.20
2022-10-11T22:20:52.559Z,7.73
2022-10-11T22:23:19.649Z,7.37
2022-10-11T22:25:46.855Z,7.73
2022-10-11T22:28:14.165Z,7.30
2022-10-11T22:30:41.463Z,8.03
2022-10-11T22:33:08.643Z,8.37
2022-10-11T22:35:37.619Z,8.27
2022-10-11T22:38:06.137Z,8.03
2022-10-11T22:40:33.386Z,7.80
2022-10-11T22:43:00.372Z,7.60
2022-10-11T22:45:27.576Z,7.50
2022-10-11T22:47:54.730Z,7.70
2022-10-11T22:50:21.816Z,7.67
2022-10-11T22:52:49.020Z,7.73
2022-10-11T22:55:19.866Z,8.00
2022-10-11T22:57:47.678Z,7.70
2022-10-11T23:00:15.361Z,6.60
2022-10-11T23:02:42.445Z,6.77
2022-10-11T23:05:09.735Z,7.33
2022-10-11T23:07:37.106Z,7.50
2022-10-11T23:10:04.755Z,7.13
2022-10-11T23:12:31.963Z,7.50
2022-10-11T23:14:59.348Z,6.97
2022-10-11T23:17:26.494Z,7.20
2022-10-11T23:19:53.653Z,7.57
2022-10-11T23:22:20.768Z,7.80
2022-10-11T23:24:48.030Z,7.70
2022-10-11T23:27:15.143Z,7.63
2022-10-11T23:29:42.385Z,8.20
2022-10-11T23:32:09.672Z,8.50
2022-10-11T23:34:36.999Z,7.23
2022-10-11T23:37:04.781Z,7.23
2022-10-11T23:39:31.952Z,10.30
2022-10-11T23:41:59.124Z,7.23
2022-10-11T23:44:26.494Z,7.73
2022-10-11T23:46:53.806Z,7.83
2022-10-11T23:49:20.959Z,7.10
2022-10-11T23:51:48.189Z,7.23
2022-10-11T23:54:15.345Z,7.60
2022-10-11T23:56:42.505Z,7.03
2022-10-11T23:59:09.915Z,8.03
